createdAt,value
2019-03-06T00:00:11.332Z,6.92
2019-03-06T00:01:11.244Z,6.88
2019-03-06T00:02:11.158Z,6.84
2019-03-06T00:03:11.070Z,6.81
2019-03-06T00:04:10.990Z,6.74
2019-03-06T00:05:10.905Z,6.69
2019-03-06T00:06:16.732Z,6.72
2019-03-06T00:07:10.732Z,6.72
2019-03-06T00:08:10.646Z,6.67
2019-03-06T00:09:10.562Z,6.66
2019-03-06T00:10:10.473Z,6.72
2019-03-06T00:11:10.389Z,6.63
2019-03-06T00:12:10.298Z,6.70
2019-03-06T00:13:10.217Z,6.66
2019-03-06T00:14:10.132Z,6.67
2019-03-06T00:15:10.047Z,6.72
2019-03-06T00:16:09.962Z,6.81
2019-03-06T00:17:09.876Z,6.77
2019-03-06T00:18:09.790Z,6.84
2019-03-06T00:19:09.704Z,6.70
2019-03-06T00:20:09.616Z,6.79
2019-03-06T00:21:09.534Z,6.72
2019-03-06T00:22:09.468Z,6.69
2019-03-06T00:23:09.362Z,6.78
2019-03-06T00:24:09.275Z,6.69
2019-03-06T00:25:09.188Z,6.72
2019-03-06T00:26:09.100Z,6.67
2019-03-06T00:27:09.018Z,6.70
2019-03-06T00:28:08.933Z,6.60
2019-03-06T00:29:08.847Z,6.60
2019-03-06T00:30:08.764Z,6.62
2019-03-06T00:31:08.674Z,6.62
2019-03-06T00:32:08.589Z,6.66
2019-03-06T00:33:08.507Z,6.56
2019-03-06T00:34:08.427Z,6.66
2019-03-06T00:35:08.334Z,6.67
2019-03-06T00:36:08.248Z,6.63
2019-03-06T00:37:08.161Z,6.63
2019-03-06T00:38:08.111Z,6.64
2019-03-06T00:39:07.990Z,6.52
2019-03-06T00:40:07.908Z,6.59
2019-03-06T00:41:07.818Z,6.72
2019-03-06T00:42:07.734Z,6.59
2019-03-06T00:43:07.647Z,6.63
2019-03-06T00:44:07.559Z,6.56
2019-03-06T00:45:07.482Z,6.57
2019-03-06T00:46:07.385Z,6.57
2019-03-06T00:47:07.304Z,6.59
2019-03-06T00:48:07.213Z,6.69
2019-03-06T00:49:07.133Z,6.69
2019-03-06T00:50:07.049Z,6.67
2019-03-06T00:51:06.957Z,6.74
2019-03-06T00:52:06.876Z,6.63
2019-03-06T00:53:06.790Z,6.67
2019-03-06T00:54:06.705Z,6.75
2019-03-06T00:55:06.623Z,6.72
2019-03-06T00:56:06.559Z,6.69
2019-03-06T00:57:06.445Z,6.74
2019-03-06T00:58:06.359Z,6.70
2019-03-06T00:59:06.277Z,6.67
2019-03-06T01:00:06.190Z,6.72
2019-03-06T01:01:06.106Z,6.70
2019-03-06T01:02:06.017Z,6.74
2019-03-06T01:03:05.930Z,6.75
2019-03-06T01:04:05.845Z,6.77
2019-03-06T01:05:05.762Z,6.79
2019-03-06T01:06:05.672Z,6.79
2019-03-06T01:07:05.590Z,6.69
2019-03-06T01:08:05.504Z,6.82
2019-03-06T01:09:05.416Z,6.77
2019-03-06T01:10:05.333Z,6.79
2019-03-06T01:11:05.249Z,6.69
2019-03-06T01:12:05.155Z,6.67
2019-03-06T01:13:05.081Z,6.75
2019-03-06T01:14:04.993Z,6.74
2019-03-06T01:15:04.903Z,6.67
2019-03-06T01:16:04.820Z,6.64
2019-03-06T01:17:04.732Z,6.60
2019-03-06T01:18:04.644Z,6.69
2019-03-06T01:19:04.561Z,6.67
2019-03-06T01:20:04.476Z,6.66
2019-03-06T01:21:04.385Z,6.62
2019-03-06T01:22:04.305Z,6.60
2019-03-06T01:23:04.217Z,6.59
2019-03-06T01:24:04.131Z,6.62
2019-03-06T01:25:04.050Z,6.63
2019-03-06T01:26:03.964Z,6.64
2019-03-06T01:27:03.872Z,6.56
2019-03-06T01:28:03.795Z,6.64
2019-03-06T01:29:03.705Z,6.54
2019-03-06T01:30:03.621Z,6.56
2019-03-06T01:31:03.532Z,6.52
2019-03-06T01:32:03.450Z,6.59
2019-03-06T01:33:03.367Z,6.57
2019-03-06T01:34:03.278Z,6.67
2019-03-06T01:35:03.192Z,6.64
2019-03-06T01:36:03.107Z,6.63
2019-03-06T01:37:03.020Z,6.54
2019-03-06T01:38:02.933Z,6.48
2019-03-06T01:39:02.847Z,6.54
2019-03-06T01:40:02.765Z,6.49
2019-03-06T01:41:02.678Z,6.49
2019-03-06T01:42:02.592Z,6.46
2019-03-06T01:43:02.506Z,6.49
2019-03-06T01:44:02.418Z,6.51
2019-03-06T01:45:02.337Z,6.54
2019-03-06T01:46:02.246Z,6.60
2019-03-06T01:47:02.168Z,6.62
2019-03-06T01:48:02.073Z,6.57
2019-03-06T01:49:01.992Z,6.59
2019-03-06T01:50:01.908Z,6.59
2019-03-06T01:51:01.817Z,6.62
2019-03-06T01:52:01.734Z,6.44
2019-03-06T01:53:01.651Z,6.49
2019-03-06T01:54:01.565Z,6.60
2019-03-06T01:55:01.479Z,6.54
2019-03-06T01:56:01.396Z,6.59
2019-03-06T01:57:01.302Z,6.59
2019-03-06T01:58:01.219Z,6.57
2019-03-06T01:59:01.137Z,6.62
2019-03-06T02:00:01.046Z,6.62
2019-03-06T02:01:00.973Z,6.60
2019-03-06T02:02:00.880Z,6.67
2019-03-06T02:03:00.793Z,6.70
2019-03-06T02:04:00.708Z,6.69
2019-03-06T02:05:00.625Z,6.67
2019-03-06T02:06:00.541Z,6.69
2019-03-06T02:07:00.447Z,6.62
2019-03-06T02:08:00.367Z,6.41
2019-03-06T02:09:00.279Z,6.51
2019-03-06T02:10:00.323Z,6.35
2019-03-06T02:11:00.109Z,6.44
2019-03-06T02:12:00.024Z,6.39
2019-03-06T02:12:59.935Z,6.51
2019-03-06T02:13:59.852Z,6.56
2019-03-06T02:14:59.765Z,6.46
2019-03-06T02:15:59.685Z,6.52
2019-03-06T02:16:59.595Z,6.44
2019-03-06T02:17:59.505Z,6.52
2019-03-06T02:18:59.420Z,6.54
2019-03-06T02:19:59.338Z,6.46
2019-03-06T02:20:59.249Z,6.45
2019-03-06T02:21:59.167Z,6.49
2019-03-06T02:22:59.106Z,6.56
2019-03-06T02:23:58.991Z,6.56
2019-03-06T02:24:58.907Z,6.57
2019-03-06T02:25:58.823Z,6.60
2019-03-06T02:26:58.734Z,6.62
2019-03-06T02:27:58.649Z,6.63
2019-03-06T02:28:58.560Z,6.59
2019-03-06T02:29:58.483Z,6.59
2019-03-06T02:30:58.394Z,6.62
2019-03-06T02:31:58.310Z,6.72
2019-03-06T02:32:58.222Z,6.66
2019-03-06T02:33:58.135Z,6.62
2019-03-06T02:34:58.052Z,6.66
2019-03-06T02:35:57.968Z,6.52
2019-03-06T02:36:57.879Z,6.51
2019-03-06T02:37:57.795Z,6.60
2019-03-06T02:38:57.711Z,6.48
2019-03-06T02:39:57.622Z,6.31
2019-03-06T02:40:57.537Z,6.33
2019-03-06T02:41:57.453Z,6.35
2019-03-06T02:42:57.363Z,6.33
2019-03-06T02:43:57.281Z,6.41
2019-03-06T02:44:57.196Z,6.31
2019-03-06T02:45:57.108Z,6.39
2019-03-06T02:46:57.018Z,6.48
2019-03-06T02:47:56.936Z,6.35
2019-03-06T02:48:56.854Z,6.20
2019-03-06T02:49:56.762Z,6.31
2019-03-06T02:50:56.754Z,6.27
2019-03-06T02:51:56.595Z,6.33
2019-03-06T02:52:56.503Z,6.35
2019-03-06T02:53:56.419Z,6.26
2019-03-06T02:54:56.341Z,6.38
2019-03-06T02:55:56.252Z,6.28
2019-03-06T02:56:56.161Z,6.31
2019-03-06T02:57:56.079Z,6.33
2019-03-06T02:58:55.992Z,6.27
2019-03-06T02:59:55.905Z,6.24
2019-03-06T03:00:55.818Z,6.26
2019-03-06T03:01:55.733Z,6.30
2019-03-06T03:02:55.649Z,6.19
2019-03-06T03:03:55.570Z,6.28
2019-03-06T03:04:55.486Z,6.24
2019-03-06T03:05:55.393Z,6.22
2019-03-06T03:06:55.312Z,6.31
2019-03-06T03:07:55.223Z,6.31
2019-03-06T03:08:55.130Z,6.33
2019-03-06T03:09:55.049Z,6.35
2019-03-06T03:10:54.964Z,6.31
2019-03-06T03:11:54.878Z,6.36
2019-03-06T03:12:54.793Z,6.33
2019-03-06T03:13:54.707Z,6.42
2019-03-06T03:14:54.622Z,6.51
2019-03-06T03:15:54.553Z,6.51
2019-03-06T03:16:54.454Z,6.56
2019-03-06T03:17:54.362Z,6.56
2019-03-06T03:18:54.277Z,6.39
2019-03-06T03:19:54.189Z,6.49
2019-03-06T03:20:54.100Z,6.46
2019-03-06T03:21:54.021Z,6.51
2019-03-06T03:22:53.928Z,6.51
2019-03-06T03:23:53.851Z,6.52
2019-03-06T03:24:53.763Z,6.48
2019-03-06T03:25:53.678Z,6.41
2019-03-06T03:26:53.605Z,6.38
2019-03-06T03:27:53.519Z,6.42
2019-03-06T03:28:53.430Z,6.42
2019-03-06T03:29:53.332Z,6.46
2019-03-06T03:30:53.246Z,6.46
2019-03-06T03:31:53.161Z,6.52
2019-03-06T03:32:53.074Z,6.49
2019-03-06T03:33:53.000Z,6.49
2019-03-06T03:34:52.908Z,6.56
2019-03-06T03:35:52.815Z,6.54
2019-03-06T03:36:52.732Z,6.45
2019-03-06T03:37:52.651Z,6.51
2019-03-06T03:38:52.561Z,6.44
2019-03-06T03:39:52.469Z,6.59
2019-03-06T03:40:52.390Z,6.51
2019-03-06T03:41:52.302Z,6.49
2019-03-06T03:42:52.226Z,6.45
2019-03-06T03:43:52.131Z,6.60
2019-03-06T03:44:52.046Z,6.51
2019-03-06T03:45:51.964Z,6.56
2019-03-06T03:46:51.874Z,6.54
2019-03-06T03:47:51.792Z,6.66
2019-03-06T03:48:51.712Z,6.56
2019-03-06T03:49:51.618Z,6.56
2019-03-06T03:50:51.533Z,6.51
2019-03-06T03:51:51.448Z,6.44
2019-03-06T03:52:51.360Z,6.46
2019-03-06T03:53:51.277Z,6.44
2019-03-06T03:54:51.189Z,6.48
2019-03-06T03:55:51.104Z,6.52
2019-03-06T03:56:51.019Z,6.46
2019-03-06T03:57:50.939Z,6.54
2019-03-06T03:58:50.849Z,6.46
2019-03-06T03:59:50.772Z,6.52
2019-03-06T04:00:50.681Z,6.42
2019-03-06T04:01:50.589Z,6.36
2019-03-06T04:02:50.509Z,6.33
2019-03-06T04:03:50.426Z,6.28
2019-03-06T04:04:50.335Z,6.33
2019-03-06T04:05:50.247Z,6.44
2019-03-06T04:06:50.170Z,6.49
2019-03-06T04:07:50.072Z,6.38
2019-03-06T04:08:49.993Z,6.44
2019-03-06T04:09:49.898Z,6.41
2019-03-06T04:10:49.819Z,6.48
2019-03-06T04:11:49.734Z,6.45
2019-03-06T04:12:49.646Z,6.45
2019-03-06T04:13:49.563Z,6.45
2019-03-06T04:14:49.477Z,6.48
2019-03-06T04:15:49.386Z,6.42
2019-03-06T04:16:49.303Z,6.45
2019-03-06T04:17:49.212Z,6.49
2019-03-06T04:18:49.131Z,6.54
2019-03-06T04:19:49.049Z,6.51
2019-03-06T04:20:48.960Z,6.54
2019-03-06T04:21:48.878Z,6.49
2019-03-06T04:22:48.795Z,6.56
2019-03-06T04:23:48.704Z,6.54
2019-03-06T04:24:48.620Z,6.60
2019-03-06T04:25:48.536Z,6.42
2019-03-06T04:26:48.446Z,6.54
2019-03-06T04:27:48.377Z,6.51
2019-03-06T04:28:48.275Z,6.64
2019-03-06T04:29:48.191Z,6.56
2019-03-06T04:30:48.098Z,6.67
2019-03-06T04:31:48.016Z,6.57
2019-03-06T04:32:47.934Z,6.63
2019-03-06T04:33:47.847Z,6.64
2019-03-06T04:34:47.754Z,6.70
2019-03-06T04:35:47.669Z,6.64
2019-03-06T04:36:47.591Z,6.66
2019-03-06T04:37:47.504Z,6.63
2019-03-06T04:38:47.418Z,6.63
2019-03-06T04:39:47.324Z,6.67
2019-03-06T04:40:47.245Z,6.74
2019-03-06T04:41:47.158Z,6.75
2019-03-06T04:42:47.076Z,6.67
2019-03-06T04:43:46.992Z,6.74
2019-03-06T04:44:46.901Z,6.67
2019-03-06T04:45:46.815Z,6.72
2019-03-06T04:46:46.732Z,6.70
2019-03-06T04:47:46.645Z,6.69
2019-03-06T04:48:46.559Z,6.63
2019-03-06T04:49:52.716Z,6.72
2019-03-06T04:50:46.391Z,6.64
2019-03-06T04:51:46.306Z,6.72
2019-03-06T04:52:46.220Z,6.63
2019-03-06T04:53:46.133Z,6.63
2019-03-06T04:54:46.048Z,6.66
2019-03-06T04:55:45.964Z,6.60
2019-03-06T04:56:45.878Z,6.56
2019-03-06T04:57:45.791Z,6.67
2019-03-06T04:58:45.703Z,6.57
2019-03-06T04:59:45.616Z,6.59
2019-03-06T05:00:45.533Z,6.60
2019-03-06T05:01:45.445Z,6.59
2019-03-06T05:02:45.359Z,6.59
2019-03-06T05:03:45.276Z,6.60
2019-03-06T05:04:45.191Z,6.67
2019-03-06T05:05:45.103Z,6.52
2019-03-06T05:06:45.021Z,6.60
2019-03-06T05:07:44.940Z,6.57
2019-03-06T05:08:44.857Z,6.67
2019-03-06T05:09:44.755Z,6.62
2019-03-06T05:10:44.671Z,6.59
2019-03-06T05:11:44.591Z,6.66
2019-03-06T05:12:44.504Z,6.60
2019-03-06T05:13:44.421Z,6.63
2019-03-06T05:14:44.334Z,6.64
2019-03-06T05:15:44.255Z,6.64
2019-03-06T05:16:44.160Z,6.56
2019-03-06T05:17:44.080Z,6.72
2019-03-06T05:18:43.993Z,6.56
2019-03-06T05:19:43.909Z,6.67
2019-03-06T05:20:43.818Z,6.63
2019-03-06T05:21:43.731Z,6.62
2019-03-06T05:22:43.649Z,6.59
2019-03-06T05:23:43.562Z,6.63
2019-03-06T05:24:43.472Z,6.69
2019-03-06T05:27:15.407Z,6.67
2019-03-06T05:28:15.350Z,6.72
2019-03-06T05:30:19.593Z,6.72
2019-03-06T05:31:19.505Z,6.72
2019-03-06T05:32:19.424Z,6.67
2019-03-06T05:33:19.334Z,6.70
2019-03-06T05:34:19.247Z,6.70
2019-03-06T05:35:19.163Z,6.69
2019-03-06T05:36:19.080Z,6.78
2019-03-06T05:37:18.992Z,6.72
2019-03-06T05:38:18.907Z,6.74
2019-03-06T05:39:18.820Z,6.79
2019-03-06T05:40:18.735Z,6.66
2019-03-06T05:41:18.649Z,6.69
2019-03-06T05:42:18.563Z,6.81
2019-03-06T05:43:18.476Z,6.64
2019-03-06T05:44:18.392Z,6.79
2019-03-06T05:45:18.303Z,6.75
2019-03-06T05:46:18.221Z,6.72
2019-03-06T05:47:18.135Z,6.74
2019-03-06T05:48:18.050Z,6.81
2019-03-06T05:49:17.958Z,6.79
2019-03-06T05:50:17.875Z,6.78
2019-03-06T05:51:17.788Z,6.74
2019-03-06T05:52:17.706Z,6.77
2019-03-06T05:53:17.626Z,6.77
2019-03-06T05:54:17.536Z,6.84
2019-03-06T05:55:17.448Z,6.72
2019-03-06T05:56:17.363Z,6.69
2019-03-06T05:57:17.278Z,6.69
2019-03-06T05:58:17.192Z,6.77
2019-03-06T05:59:17.107Z,6.66
2019-03-06T06:00:17.024Z,6.72
2019-03-06T06:01:16.933Z,6.81
2019-03-06T06:02:16.846Z,6.78
2019-03-06T06:03:16.764Z,6.67
2019-03-06T06:04:16.687Z,6.75
2019-03-06T06:05:16.593Z,6.75
2019-03-06T06:06:16.510Z,6.81
2019-03-06T06:07:16.421Z,6.70
2019-03-06T06:08:16.337Z,6.72
2019-03-06T06:09:16.254Z,6.70
2019-03-06T06:10:16.167Z,6.70
2019-03-06T06:11:16.078Z,6.70
2019-03-06T06:12:15.995Z,6.72
2019-03-06T06:13:15.910Z,6.81
2019-03-06T06:14:15.848Z,6.69
2019-03-06T06:15:15.742Z,6.66
2019-03-06T06:16:15.650Z,6.70
2019-03-06T06:17:15.568Z,6.70
2019-03-06T06:18:15.480Z,6.74
2019-03-06T06:19:15.395Z,6.70
2019-03-06T06:20:15.309Z,6.69
2019-03-06T06:21:15.223Z,6.69
2019-03-06T06:22:15.132Z,6.81
2019-03-06T06:23:15.051Z,6.70
2019-03-06T06:24:14.967Z,6.70
2019-03-06T06:25:14.881Z,6.74
2019-03-06T06:26:14.792Z,6.74
2019-03-06T06:27:14.710Z,6.77
2019-03-06T06:28:14.621Z,6.77
2019-03-06T06:29:14.538Z,6.78
2019-03-06T06:30:14.454Z,6.69
2019-03-06T06:31:14.370Z,6.67
2019-03-06T06:32:14.285Z,6.69
2019-03-06T06:33:14.194Z,6.67
2019-03-06T06:34:14.110Z,6.74
2019-03-06T06:35:14.023Z,6.72
2019-03-06T06:36:13.948Z,6.62
2019-03-06T06:37:13.855Z,6.63
2019-03-06T06:38:13.776Z,6.75
2019-03-06T06:39:13.684Z,6.64
2019-03-06T06:40:13.596Z,6.67
2019-03-06T06:41:13.511Z,6.72
2019-03-06T06:42:13.424Z,6.70
2019-03-06T06:43:13.342Z,6.69
2019-03-06T06:44:13.252Z,6.64
2019-03-06T06:45:13.169Z,6.63
2019-03-06T06:46:13.084Z,6.62
2019-03-06T06:47:12.998Z,6.72
2019-03-06T06:48:12.916Z,6.70
2019-03-06T06:49:12.828Z,6.72
2019-03-06T06:50:12.740Z,6.64
2019-03-06T06:51:12.656Z,6.70
2019-03-06T06:52:12.570Z,6.64
2019-03-06T06:53:12.484Z,6.59
2019-03-06T06:54:12.396Z,6.64
2019-03-06T06:55:12.312Z,6.63
2019-03-06T06:56:12.223Z,6.67
2019-03-06T06:57:12.145Z,6.70
2019-03-06T06:58:12.051Z,6.60
2019-03-06T06:59:11.968Z,6.67
2019-03-06T07:00:11.883Z,6.63
2019-03-06T07:01:11.805Z,6.60
2019-03-06T07:02:11.713Z,6.64
2019-03-06T07:03:11.630Z,6.63
2019-03-06T07:04:11.543Z,6.67
2019-03-06T07:05:11.461Z,6.69
2019-03-06T07:06:11.372Z,6.66
2019-03-06T07:07:11.286Z,6.64
2019-03-06T07:08:11.199Z,6.60
2019-03-06T07:09:11.109Z,6.60
2019-03-06T07:10:11.029Z,6.67
2019-03-06T07:11:10.944Z,6.63
2019-03-06T07:12:10.852Z,6.67
2019-03-06T07:13:10.771Z,6.66
2019-03-06T07:14:10.683Z,6.72
2019-03-06T07:15:10.598Z,6.69
2019-03-06T07:16:10.515Z,6.69
2019-03-06T07:17:10.428Z,6.75
2019-03-06T07:18:10.343Z,6.75
2019-03-06T07:19:10.267Z,6.70
2019-03-06T07:20:10.178Z,6.69
2019-03-06T07:21:10.086Z,6.79
2019-03-06T07:22:09.998Z,6.78
2019-03-06T07:23:09.922Z,6.70
2019-03-06T07:24:09.830Z,6.79
2019-03-06T07:25:09.745Z,6.75
2019-03-06T07:26:09.659Z,6.70
2019-03-06T07:27:09.572Z,6.77
2019-03-06T07:28:09.493Z,6.82
2019-03-06T07:29:09.402Z,6.81
2019-03-06T07:30:09.317Z,6.88
2019-03-06T07:31:09.229Z,6.82
2019-03-06T07:32:09.144Z,6.85
2019-03-06T07:33:09.067Z,6.81
2019-03-06T07:34:08.973Z,6.97
2019-03-06T07:35:08.885Z,6.92
2019-03-06T07:36:08.804Z,6.96
2019-03-06T07:37:08.720Z,6.89
2019-03-06T07:38:08.637Z,6.95
2019-03-06T07:39:08.547Z,6.95
2019-03-06T07:40:08.465Z,6.99
2019-03-06T07:41:08.380Z,6.97
2019-03-06T07:42:08.292Z,7.02
2019-03-06T07:43:08.204Z,6.99
2019-03-06T07:44:08.122Z,7.02
2019-03-06T07:45:08.039Z,6.99
2019-03-06T07:46:07.952Z,6.93
2019-03-06T07:47:07.865Z,6.96
2019-03-06T07:48:07.783Z,6.97
2019-03-06T07:49:07.694Z,7.03
2019-03-06T07:50:07.608Z,6.96
2019-03-06T07:51:07.525Z,6.96
2019-03-06T07:52:07.449Z,6.97
2019-03-06T07:53:07.352Z,7.03
2019-03-06T07:54:07.271Z,7.02
2019-03-06T07:55:07.178Z,7.02
2019-03-06T07:56:07.098Z,7.05
2019-03-06T07:57:07.015Z,7.03
2019-03-06T07:58:06.928Z,7.07
2019-03-06T07:59:06.844Z,7.13
2019-03-06T08:00:06.758Z,7.15
2019-03-06T08:01:06.676Z,7.14
2019-03-06T08:02:06.588Z,7.17
2019-03-06T08:03:06.503Z,7.14
2019-03-06T08:04:06.419Z,7.17
2019-03-06T08:05:06.332Z,7.14
2019-03-06T08:06:06.346Z,7.03
2019-03-06T08:07:06.165Z,7.02
2019-03-06T08:08:06.081Z,7.00
2019-03-06T08:09:05.995Z,7.02
2019-03-06T08:10:05.908Z,7.18
2019-03-06T08:11:05.819Z,7.17
2019-03-06T08:12:05.740Z,7.18
2019-03-06T08:13:05.658Z,7.21
2019-03-06T08:14:05.570Z,7.32
2019-03-06T08:15:05.538Z,7.23
2019-03-06T08:16:05.397Z,7.28
2019-03-06T08:17:05.319Z,7.32
2019-03-06T08:18:05.224Z,7.32
2019-03-06T08:19:05.146Z,7.38
2019-03-06T08:20:05.058Z,7.35
2019-03-06T08:21:04.975Z,7.39
2019-03-06T08:22:04.888Z,7.31
2019-03-06T08:23:04.804Z,7.39
2019-03-06T08:24:04.724Z,7.24
2019-03-06T08:25:04.638Z,7.31
2019-03-06T08:26:04.554Z,7.32
2019-03-06T08:27:04.466Z,7.35
2019-03-06T08:28:04.378Z,7.31
2019-03-06T08:29:04.302Z,7.33
2019-03-06T08:30:04.212Z,7.29
2019-03-06T08:31:04.130Z,7.28
2019-03-06T08:32:04.035Z,7.29
2019-03-06T08:33:03.956Z,7.35
2019-03-06T08:34:03.870Z,7.39
2019-03-06T08:35:03.792Z,7.33
2019-03-06T08:36:03.707Z,7.35
2019-03-06T08:37:03.623Z,7.36
2019-03-06T08:38:03.532Z,7.39
2019-03-06T08:39:03.448Z,7.38
2019-03-06T08:40:03.359Z,7.35
2019-03-06T08:41:04.779Z,7.35
2019-03-06T08:42:03.195Z,7.38
2019-03-06T08:43:03.113Z,7.39
2019-03-06T08:44:03.022Z,7.35
2019-03-06T08:45:02.939Z,7.50
2019-03-06T08:46:02.857Z,7.53
2019-03-06T08:47:02.771Z,7.47
2019-03-06T08:48:02.684Z,7.50
2019-03-06T08:49:02.607Z,7.42
2019-03-06T08:50:02.516Z,7.50
2019-03-06T08:51:02.429Z,7.53
2019-03-06T08:52:02.343Z,7.47
2019-03-06T08:53:02.262Z,7.48
2019-03-06T08:54:02.175Z,7.43
2019-03-06T08:55:02.088Z,7.43
2019-03-06T08:56:02.010Z,7.43
2019-03-06T08:57:01.926Z,7.48
2019-03-06T08:58:01.839Z,7.51
2019-03-06T08:59:01.754Z,7.56
2019-03-06T09:00:01.669Z,7.50
2019-03-06T09:01:01.584Z,7.47
2019-03-06T09:02:01.502Z,7.43
2019-03-06T09:03:01.417Z,7.51
2019-03-06T09:04:01.336Z,7.54
2019-03-06T09:05:01.256Z,7.51
2019-03-06T09:06:01.165Z,7.48
2019-03-06T09:07:01.083Z,7.54
2019-03-06T09:08:00.996Z,7.48
2019-03-06T09:09:02.225Z,7.48
2019-03-06T09:10:00.829Z,7.50
2019-03-06T09:11:03.040Z,7.50
2019-03-06T09:12:00.660Z,7.47
2019-03-06T09:13:00.570Z,7.43
2019-03-06T09:14:00.488Z,7.45
2019-03-06T09:15:00.406Z,7.54
2019-03-06T09:16:00.319Z,7.56
2019-03-06T09:17:00.245Z,7.53
2019-03-06T09:18:08.809Z,7.57
2019-03-06T09:19:00.062Z,7.58
2019-03-06T09:19:59.977Z,7.61
2019-03-06T09:20:59.896Z,7.63
2019-03-06T09:21:59.816Z,7.56
2019-03-06T09:22:59.731Z,7.69
2019-03-06T09:23:59.642Z,7.69
2019-03-06T09:24:59.559Z,7.66
2019-03-06T09:25:59.474Z,7.70
2019-03-06T09:26:59.734Z,7.70
2019-03-06T09:27:59.305Z,7.70
2019-03-06T09:29:01.394Z,7.73
2019-03-06T09:29:59.717Z,7.69
2019-03-06T09:30:59.062Z,7.73
2019-03-06T09:31:58.964Z,7.69
2019-03-06T09:32:58.882Z,7.69
2019-03-06T09:33:58.800Z,7.66
2019-03-06T09:34:58.719Z,7.82
2019-03-06T09:35:58.631Z,7.87
2019-03-06T09:36:58.548Z,7.76
2019-03-06T09:37:58.463Z,7.85
2019-03-06T09:38:58.380Z,7.87
2019-03-06T09:39:58.299Z,7.83
2019-03-06T09:40:58.220Z,7.82
2019-03-06T09:41:58.131Z,7.77
2019-03-06T09:42:58.041Z,7.82
2019-03-06T09:43:57.959Z,7.85
2019-03-06T09:44:57.875Z,7.77
2019-03-06T09:45:57.788Z,7.94
2019-03-06T09:46:57.707Z,7.90
2019-03-06T09:47:57.623Z,7.95
2019-03-06T09:48:57.543Z,7.88
2019-03-06T09:49:57.458Z,7.88
2019-03-06T09:50:57.367Z,7.95
2019-03-06T09:51:57.286Z,7.94
2019-03-06T09:52:57.204Z,7.91
2019-03-06T09:53:57.115Z,7.98
2019-03-06T09:54:57.031Z,7.97
2019-03-06T09:55:56.952Z,7.91
2019-03-06T09:56:56.864Z,8.03
2019-03-06T09:57:56.784Z,8.13
2019-03-06T09:58:56.694Z,8.08
2019-03-06T09:59:56.613Z,8.13
2019-03-06T10:00:56.528Z,8.23
2019-03-06T10:01:56.446Z,8.19
2019-03-06T10:02:56.362Z,8.26
2019-03-06T10:03:56.276Z,8.27
2019-03-06T10:04:56.189Z,8.26
2019-03-06T10:05:56.106Z,8.28
2019-03-06T10:06:56.025Z,8.37
2019-03-06T10:07:55.938Z,8.36
2019-03-06T10:08:55.858Z,8.45
2019-03-06T10:09:59.110Z,8.45
2019-03-06T10:10:57.722Z,8.41
2019-03-06T10:11:55.608Z,8.44
2019-03-06T10:12:55.523Z,8.48
2019-03-06T10:13:55.430Z,8.49
2019-03-06T10:14:55.355Z,8.53
2019-03-06T10:15:55.268Z,8.60
2019-03-06T10:16:55.185Z,8.74
2019-03-06T10:17:55.111Z,8.81
2019-03-06T10:18:55.019Z,8.78
2019-03-06T10:19:54.938Z,8.78
2019-03-06T10:20:54.853Z,8.88
2019-03-06T10:21:54.767Z,8.94
2019-03-06T10:22:59.294Z,9.00
2019-03-06T10:23:54.604Z,9.08
2019-03-06T10:24:55.696Z,9.10
2019-03-06T10:25:54.436Z,9.06
2019-03-06T10:26:54.353Z,9.16
2019-03-06T10:27:54.273Z,9.14
2019-03-06T10:28:54.190Z,9.14
2019-03-06T10:29:54.101Z,9.14
2019-03-06T10:31:02.189Z,9.22
2019-03-06T10:31:53.934Z,9.31
2019-03-06T10:32:53.857Z,9.34
2019-03-06T10:33:53.771Z,9.36
2019-03-06T10:34:55.085Z,9.36
2019-03-06T10:35:53.607Z,9.39
2019-03-06T10:36:53.525Z,9.34
2019-03-06T10:37:53.440Z,9.46
2019-03-06T10:38:53.355Z,9.46
2019-03-06T10:39:53.272Z,9.50
2019-03-06T10:40:53.191Z,9.44
2019-03-06T10:41:53.101Z,9.64
2019-03-06T10:42:53.034Z,9.65
2019-03-06T10:43:52.948Z,9.66
2019-03-06T10:44:52.861Z,9.66
2019-03-06T10:45:52.775Z,9.77
2019-03-06T10:46:52.693Z,9.89
2019-03-06T10:47:52.612Z,9.91
2019-03-06T10:48:52.543Z,9.97
2019-03-06T10:49:52.448Z,9.99
2019-03-06T10:50:52.368Z,10.01
2019-03-06T10:51:52.284Z,10.13
2019-03-06T10:52:52.213Z,10.16
2019-03-06T10:53:52.125Z,10.20
2019-03-06T10:54:52.048Z,10.17
2019-03-06T10:55:51.964Z,10.25
2019-03-06T10:56:51.887Z,10.38
2019-03-06T10:57:51.805Z,10.42
2019-03-06T10:58:51.728Z,10.42
2019-03-06T10:59:51.648Z,10.49
2019-03-06T11:00:51.574Z,10.41
2019-03-06T11:01:51.493Z,10.54
2019-03-06T11:02:51.412Z,10.53
2019-03-06T11:03:51.335Z,10.57
2019-03-06T11:04:51.256Z,10.72
2019-03-06T11:05:51.179Z,10.76
2019-03-06T11:06:51.098Z,10.71
2019-03-06T11:07:51.017Z,10.86
2019-03-06T11:08:50.946Z,10.99
2019-03-06T11:09:50.884Z,11.02
2019-03-06T11:10:50.786Z,11.11
2019-03-06T11:11:50.710Z,11.30
2019-03-06T11:12:50.633Z,11.35
2019-03-06T11:13:50.555Z,11.51
2019-03-06T11:14:50.480Z,11.68
2019-03-06T11:15:55.729Z,11.95
2019-03-06T11:16:50.335Z,11.94
2019-03-06T11:17:50.253Z,12.04
2019-03-06T11:18:50.182Z,12.21
2019-03-06T11:19:50.103Z,12.39
2019-03-06T11:20:50.036Z,12.50
2019-03-06T11:21:49.959Z,12.67
2019-03-06T11:22:49.890Z,12.70
2019-03-06T11:23:49.817Z,12.86
2019-03-06T11:24:49.750Z,13.08
2019-03-06T11:25:49.673Z,13.09
2019-03-06T11:26:49.600Z,13.25
2019-03-06T11:27:49.532Z,13.47
2019-03-06T11:28:49.460Z,13.50
2019-03-06T11:29:49.390Z,13.63
2019-03-06T11:30:49.322Z,13.83
2019-03-06T11:32:57.845Z,13.86
2019-03-06T11:34:53.510Z,13.99
2019-03-06T11:35:53.427Z,14.35
2019-03-06T11:36:53.352Z,14.54
2019-03-06T11:37:53.288Z,14.79
2019-03-06T11:38:53.225Z,14.85
2019-03-06T11:39:53.154Z,15.00
2019-03-06T11:40:53.084Z,15.15
2019-03-06T11:41:53.020Z,15.15
2019-03-06T11:42:52.949Z,15.24
2019-03-06T11:43:52.879Z,15.44
2019-03-06T11:44:52.812Z,15.58
2019-03-06T11:45:52.744Z,15.67
2019-03-06T11:46:53.097Z,15.77
2019-03-06T11:47:52.612Z,15.75
2019-03-06T11:48:52.541Z,15.76
2019-03-06T11:49:52.478Z,15.79
2019-03-06T11:50:52.410Z,15.97
2019-03-06T11:51:52.343Z,15.90
2019-03-06T11:52:52.275Z,15.94
2019-03-06T11:53:52.205Z,15.97
2019-03-06T11:54:52.141Z,15.97
2019-03-06T11:55:52.071Z,15.91
2019-03-06T11:56:52.005Z,16.00
2019-03-06T11:57:51.948Z,16.09
2019-03-06T11:58:51.867Z,16.16
2019-03-06T11:59:51.796Z,16.24
2019-03-06T12:00:51.729Z,16.24
2019-03-06T12:01:51.656Z,16.39
2019-03-06T12:02:51.593Z,16.38
2019-03-06T12:03:51.520Z,16.57
2019-03-06T12:04:51.450Z,16.72
2019-03-06T12:05:51.387Z,16.78
2019-03-06T12:06:51.318Z,16.91
2019-03-06T12:07:51.245Z,16.94
2019-03-06T12:08:51.176Z,17.01
2019-03-06T12:09:51.105Z,16.89
2019-03-06T12:10:51.042Z,16.87
2019-03-06T12:11:50.966Z,16.78
2019-03-06T12:12:50.901Z,16.74
2019-03-06T12:13:50.828Z,16.68
2019-03-06T12:14:50.763Z,16.53
2019-03-06T12:15:50.690Z,16.31
2019-03-06T12:16:50.621Z,16.28
2019-03-06T12:17:50.551Z,16.13
2019-03-06T12:18:50.483Z,16.01
2019-03-06T12:19:50.410Z,15.90
2019-03-06T12:20:50.339Z,15.67
2019-03-06T12:21:50.269Z,15.62
2019-03-06T12:22:50.196Z,15.61
2019-03-06T12:23:50.122Z,15.54
2019-03-06T12:24:50.053Z,15.47
2019-03-06T12:25:49.977Z,15.36
2019-03-06T12:26:49.903Z,15.27
2019-03-06T12:27:49.861Z,15.10
2019-03-06T12:28:49.757Z,15.17
2019-03-06T12:29:49.692Z,15.09
2019-03-06T12:30:49.612Z,15.02
2019-03-06T12:31:49.543Z,15.09
2019-03-06T12:32:49.467Z,15.04
2019-03-06T12:33:49.392Z,15.04
2019-03-06T12:34:49.320Z,15.03
2019-03-06T12:35:49.248Z,15.17
2019-03-06T12:36:49.172Z,15.19
2019-03-06T12:37:49.093Z,15.25
2019-03-06T12:38:49.017Z,15.21
2019-03-06T12:39:48.950Z,15.39
2019-03-06T12:40:48.875Z,15.40
2019-03-06T12:41:48.798Z,15.46
2019-03-06T12:42:48.725Z,15.49
2019-03-06T12:43:48.649Z,15.47
2019-03-06T12:44:48.576Z,15.46
2019-03-06T12:45:48.502Z,15.36
2019-03-06T12:46:48.432Z,15.39
2019-03-06T12:47:55.138Z,15.39
2019-03-06T12:48:48.275Z,15.40
2019-03-06T12:49:48.203Z,15.39
2019-03-06T12:50:55.111Z,15.49
2019-03-06T12:51:54.406Z,15.49
2019-03-06T12:52:47.988Z,15.65
2019-03-06T12:53:47.902Z,15.82
2019-03-06T12:54:47.832Z,15.84
2019-03-06T12:55:47.761Z,15.97
2019-03-06T12:56:47.688Z,16.08
2019-03-06T12:57:47.604Z,16.15
2019-03-06T12:58:47.534Z,16.20
2019-03-06T12:59:47.460Z,16.17
2019-03-06T13:00:47.386Z,16.23
2019-03-06T13:01:47.308Z,16.28
2019-03-06T13:02:47.233Z,16.38
2019-03-06T13:03:47.538Z,16.41
2019-03-06T13:04:47.082Z,16.47
2019-03-06T13:05:47.007Z,16.51
2019-03-06T13:06:46.945Z,16.51
2019-03-06T13:07:46.860Z,16.24
2019-03-06T13:08:50.359Z,16.26
2019-03-06T13:09:46.708Z,16.05
2019-03-06T13:10:46.630Z,16.08
2019-03-06T13:11:46.557Z,15.98
2019-03-06T13:12:46.480Z,15.98
2019-03-06T13:13:46.405Z,15.84
2019-03-06T13:14:46.582Z,15.77
2019-03-06T13:15:46.256Z,15.77
2019-03-06T13:16:46.178Z,15.65